createdAt,value
2023-03-11T00:00:32.984Z,92798.97
2023-03-11T00:03:02.135Z,92802.38
2023-03-11T00:05:40.260Z,92794.66
2023-03-11T00:08:09.855Z,92804.31
2023-03-11T00:10:39.381Z,92798.19
2023-03-11T00:13:07.626Z,92800.50
2023-03-11T00:15:34.841Z,92803.56
2023-03-11T00:18:01.582Z,92802.38
2023-03-11T00:20:34.233Z,92825.94
2023-03-11T00:23:02.228Z,92822.41
2023-03-11T00:25:31.523Z,92824.78
2023-03-11T00:27:58.766Z,92810.03
2023-03-11T00:30:25.744Z,92802.00
2023-03-11T00:32:55.593Z,92798.88
2023-03-11T00:35:26.119Z,92801.50
2023-03-11T00:38:16.571Z,92795.44
2023-03-11T00:40:46.179Z,92798.50
2023-03-11T00:43:13.323Z,92794.72
2023-03-11T00:45:40.294Z,92790.34
2023-03-11T00:48:07.861Z,92782.63
2023-03-11T00:50:37.344Z,92786.56
2023-03-11T00:53:04.913Z,92791.22
2023-03-11T00:55:33.737Z,92810.44
2023-03-11T00:58:03.508Z,92805.88
2023-03-11T01:00:31.245Z,92831.28
2023-03-11T01:02:59.299Z,92824.00
2023-03-11T01:05:29.391Z,92817.47
2023-03-11T01:07:56.136Z,92803.97
2023-03-11T01:10:22.898Z,92788.81
2023-03-11T01:12:49.661Z,92794.63
2023-03-11T01:15:20.560Z,92800.44
2023-03-11T01:17:47.378Z,92802.38
2023-03-11T01:20:14.913Z,92806.59
2023-03-11T01:22:41.765Z,92800.41
2023-03-11T01:25:10.607Z,92790.00
2023-03-11T01:27:37.273Z,92787.69
2023-03-11T01:30:04.219Z,92775.34
2023-03-11T01:32:30.989Z,92796.19
2023-03-11T01:34:57.706Z,92802.72
2023-03-11T01:37:24.502Z,92811.59
2023-03-11T01:39:51.181Z,92806.09
2023-03-11T01:42:17.845Z,92805.25
2023-03-11T01:44:44.530Z,92792.97
2023-03-11T01:47:11.078Z,92787.09
2023-03-11T01:49:41.926Z,92792.25
2023-03-11T01:52:08.893Z,92798.34
2023-03-11T01:54:39.348Z,92793.00
2023-03-11T01:57:12.142Z,92797.19
2023-03-11T01:59:43.475Z,92784.78
2023-03-11T02:02:17.359Z,92804.94
2023-03-11T02:04:44.882Z,92784.88
2023-03-11T02:07:12.945Z,92775.31
2023-03-11T02:09:39.654Z,92777.56
2023-03-11T02:12:09.243Z,92768.66
2023-03-11T02:14:38.994Z,92765.66
2023-03-11T02:17:05.709Z,92773.28
2023-03-11T02:19:49.766Z,92771.78
2023-03-11T02:22:16.466Z,92758.28
2023-03-11T02:24:58.366Z,92772.47
2023-03-11T02:27:27.728Z,92796.38
2023-03-11T02:29:56.872Z,92804.91
2023-03-11T02:32:24.400Z,92787.16
2023-03-11T02:34:51.087Z,92790.63
2023-03-11T02:37:18.425Z,92797.25
2023-03-11T02:39:47.811Z,92792.63
2023-03-11T02:42:31.552Z,92809.25
2023-03-11T02:45:04.236Z,92814.44
2023-03-11T02:47:31.100Z,92806.88
2023-03-11T02:49:57.818Z,92830.28
2023-03-11T02:52:33.663Z,92843.38
2023-03-11T02:55:00.400Z,92834.91
2023-03-11T02:57:27.102Z,92840.97
2023-03-11T02:59:53.991Z,92838.75
2023-03-11T03:02:20.694Z,92837.94
2023-03-11T03:04:47.284Z,92812.94
2023-03-11T03:07:14.197Z,92822.34
2023-03-11T03:09:40.918Z,92815.78
2023-03-11T03:12:07.729Z,92814.13
2023-03-11T03:14:34.419Z,92830.03
2023-03-11T03:17:01.230Z,92834.97
2023-03-11T03:19:27.984Z,92828.13
2023-03-11T03:21:54.654Z,92821.13
2023-03-11T03:24:21.378Z,92826.84
2023-03-11T03:26:47.995Z,92829.53
2023-03-11T03:29:14.721Z,92826.06
2023-03-11T03:31:41.425Z,92825.94
2023-03-11T03:34:08.346Z,92816.34
2023-03-11T03:36:35.052Z,92809.78
2023-03-11T03:39:01.771Z,92820.16
2023-03-11T03:41:28.603Z,92822.63
2023-03-11T03:43:55.333Z,92817.13
2023-03-11T03:46:22.339Z,92815.97
2023-03-11T03:48:49.278Z,92824.28
2023-03-11T03:51:16.278Z,92832.34
2023-03-11T03:53:43.333Z,92848.69
2023-03-11T03:56:12.658Z,92836.09
2023-03-11T03:58:39.353Z,92833.19
2023-03-11T04:01:07.444Z,92832.22
2023-03-11T04:03:35.276Z,92838.81
2023-03-11T04:06:10.701Z,92843.78
2023-03-11T04:08:37.870Z,92859.38
2023-03-11T04:11:04.619Z,92874.56
2023-03-11T04:13:31.454Z,92867.06
2023-03-11T04:15:58.198Z,92875.28
2023-03-11T04:18:24.924Z,92876.75
2023-03-11T04:20:51.639Z,92877.03
2023-03-11T04:23:18.341Z,92863.50
2023-03-11T04:25:45.024Z,92872.22
2023-03-11T04:28:11.698Z,92864.25
2023-03-11T04:30:39.147Z,92861.50
2023-03-11T04:33:05.950Z,92861.38
2023-03-11T04:35:32.611Z,92848.81
2023-03-11T04:38:00.817Z,92844.06
2023-03-11T04:40:28.310Z,92844.00
2023-03-11T04:42:55.026Z,92860.72
2023-03-11T04:45:21.670Z,92863.34
2023-03-11T04:47:49.321Z,92873.59
2023-03-11T04:50:16.885Z,92870.53
2023-03-11T04:52:43.607Z,92882.75
2023-03-11T04:55:10.882Z,92889.53
2023-03-11T04:57:37.656Z,92895.72
2023-03-11T05:00:11.938Z,92895.38
2023-03-11T05:02:39.901Z,92891.22
2023-03-11T05:05:08.977Z,92892.75
2023-03-11T05:07:36.812Z,92895.44
2023-03-11T05:10:05.059Z,92893.97
2023-03-11T05:12:31.835Z,92902.53
2023-03-11T05:14:58.515Z,92903.34
2023-03-11T05:17:25.201Z,92905.69
2023-03-11T05:19:53.716Z,92908.31
2023-03-11T05:22:21.107Z,92908.03
2023-03-11T05:24:48.453Z,92902.84
2023-03-11T05:27:18.050Z,92902.53
2023-03-11T05:29:45.264Z,92902.22
2023-03-11T05:32:13.479Z,92918.66
2023-03-11T05:34:40.559Z,92918.81
2023-03-11T05:37:07.883Z,92909.88
2023-03-11T05:39:35.033Z,92916.91
2023-03-11T05:42:01.708Z,92905.44
2023-03-11T05:44:28.454Z,92896.06
2023-03-11T05:46:55.160Z,92893.75
2023-03-11T05:49:22.121Z,92888.72
2023-03-11T05:51:49.618Z,92888.09
2023-03-11T05:54:16.776Z,92891.94
2023-03-11T05:56:44.999Z,92886.38
2023-03-11T05:59:16.219Z,92903.34
2023-03-11T06:01:44.201Z,92890.59
2023-03-11T06:04:11.652Z,92896.94
2023-03-11T06:06:39.643Z,92908.56
2023-03-11T06:09:06.244Z,92900.59
2023-03-11T06:11:32.962Z,92899.84
2023-03-11T06:13:59.585Z,92903.91
2023-03-11T06:16:26.745Z,92905.97
2023-03-11T06:18:53.488Z,92917.66
2023-03-11T06:21:23.238Z,92909.91
2023-03-11T06:23:50.317Z,92912.19
2023-03-11T06:26:22.992Z,92918.19
2023-03-11T06:28:50.967Z,92921.00
2023-03-11T06:31:25.227Z,92923.00
2023-03-11T06:33:53.036Z,92920.41
2023-03-11T06:36:20.511Z,92923.19
2023-03-11T06:38:48.464Z,92923.09
2023-03-11T06:41:15.068Z,92923.09
2023-03-11T06:43:42.014Z,92932.44
2023-03-11T06:46:13.844Z,92943.28
2023-03-11T06:48:40.585Z,92952.44
2023-03-11T06:51:07.361Z,92946.69
2023-03-11T06:53:34.385Z,92949.59
2023-03-11T06:56:06.159Z,92946.31
2023-03-11T06:58:34.548Z,92959.94
2023-03-11T07:01:08.059Z,92955.56
2023-03-11T07:03:34.812Z,92964.91
2023-03-11T07:06:01.950Z,92970.81
2023-03-11T07:08:28.958Z,92967.56
2023-03-11T07:11:16.703Z,92965.56
2023-03-11T07:13:43.847Z,92973.22
2023-03-11T07:16:22.200Z,92977.38
2023-03-11T07:18:49.971Z,92984.16
2023-03-11T07:21:20.031Z,93001.28
2023-03-11T07:23:49.202Z,92993.53
2023-03-11T07:26:16.549Z,92983.84
2023-03-11T07:28:44.583Z,92983.72
2023-03-11T07:31:14.303Z,92975.94
2023-03-11T07:33:41.060Z,92973.63
2023-03-11T07:36:13.337Z,92988.09
2023-03-11T07:38:41.853Z,92990.50
2023-03-11T07:41:11.218Z,92988.53
2023-03-11T07:43:39.075Z,92984.75
2023-03-11T07:46:11.140Z,92993.75
2023-03-11T07:48:39.219Z,93002.94
2023-03-11T07:51:09.616Z,92995.09
2023-03-11T07:53:36.336Z,93006.00
2023-03-11T07:56:04.488Z,93016.53
2023-03-11T07:58:31.183Z,93017.50
2023-03-11T08:01:04.616Z,93015.31
2023-03-11T08:03:31.309Z,93016.72
2023-03-11T08:05:58.021Z,93027.44
2023-03-11T08:08:24.861Z,93021.31
2023-03-11T08:10:51.575Z,93018.25
2023-03-11T08:13:18.578Z,93027.81
2023-03-11T08:15:45.266Z,93031.31
2023-03-11T08:18:12.059Z,93018.50
2023-03-11T08:20:39.037Z,93016.72
2023-03-11T08:23:06.023Z,93010.22
2023-03-11T08:25:32.669Z,93019.22
2023-03-11T08:27:59.253Z,93005.31
2023-03-11T08:30:25.907Z,93010.31
2023-03-11T08:32:52.609Z,93012.88
2023-03-11T08:35:19.423Z,93017.91
2023-03-11T08:37:46.371Z,93025.38
2023-03-11T08:40:13.335Z,93019.19
2023-03-11T08:42:40.016Z,93025.69
2023-03-11T08:45:07.540Z,93035.50
2023-03-11T08:47:36.399Z,93039.22
2023-03-11T08:50:06.246Z,93040.44
2023-03-11T08:52:32.999Z,93042.56
2023-03-11T08:54:59.605Z,93041.88
2023-03-11T08:57:26.237Z,93037.81
2023-03-11T08:59:52.862Z,93039.13
2023-03-11T09:02:19.511Z,93039.75
2023-03-11T09:04:46.198Z,93046.78
2023-03-11T09:07:14.186Z,93046.00
2023-03-11T09:09:40.802Z,93035.59
2023-03-11T09:12:08.234Z,93043.16
2023-03-11T09:14:35.547Z,93034.56
2023-03-11T09:17:02.270Z,93044.00
2023-03-11T09:19:29.018Z,93043.16
2023-03-11T09:21:55.766Z,93036.47
2023-03-11T09:24:22.437Z,93042.75
2023-03-11T09:26:49.101Z,93045.50
2023-03-11T09:29:15.970Z,93037.72
2023-03-11T09:31:42.718Z,93049.28
2023-03-11T09:34:13.940Z,93047.22
2023-03-11T09:36:42.052Z,93040.97
2023-03-11T09:39:09.468Z,93049.38
2023-03-11T09:42:17.487Z,93055.00
2023-03-11T09:45:00.280Z,93041.09
2023-03-11T09:47:34.448Z,93053.69
2023-03-11T09:50:15.100Z,93059.00
2023-03-11T09:53:22.669Z,93049.09
2023-03-11T09:55:54.352Z,93072.19
2023-03-11T09:58:47.275Z,93063.47
2023-03-11T10:01:20.206Z,93065.97
2023-03-11T10:03:48.540Z,93061.91
2023-03-11T10:06:28.661Z,93074.00
2023-03-11T10:09:25.110Z,93065.00
2023-03-11T10:12:17.738Z,93055.66
2023-03-11T10:14:50.265Z,93067.03
2023-03-11T10:17:44.302Z,93049.56
2023-03-11T10:20:20.059Z,93056.34
2023-03-11T10:22:59.804Z,93046.84
2023-03-11T10:26:08.029Z,93040.84
2023-03-11T10:28:49.957Z,93033.97
2023-03-11T10:31:28.091Z,93032.78
2023-03-11T10:34:19.192Z,93046.59
2023-03-11T10:36:54.639Z,93046.56
2023-03-11T10:39:22.926Z,93052.69
2023-03-11T10:41:52.901Z,93041.22
2023-03-11T10:44:25.637Z,93035.44
2023-03-11T10:46:52.322Z,93047.06
2023-03-11T10:49:19.103Z,93048.41
2023-03-11T10:51:51.653Z,93055.00
2023-03-11T10:54:32.776Z,93053.53
2023-03-11T10:57:02.419Z,93055.59
2023-03-11T10:59:47.816Z,93041.41
2023-03-11T11:02:27.734Z,93053.00
2023-03-11T11:05:13.845Z,93064.34
2023-03-11T11:07:41.201Z,93058.19
2023-03-11T11:10:20.192Z,93059.84
2023-03-11T11:13:12.624Z,93056.38
2023-03-11T11:15:53.041Z,93048.41
2023-03-11T11:18:23.478Z,93045.97
2023-03-11T11:21:09.148Z,93048.75
2023-03-11T11:23:43.309Z,93050.47
2023-03-11T11:26:25.281Z,93047.47
2023-03-11T11:29:08.452Z,93043.50
2023-03-11T11:31:37.534Z,93038.69
2023-03-11T11:34:06.998Z,93044.22
2023-03-11T11:36:39.650Z,93031.69
2023-03-11T11:39:17.365Z,93028.28
2023-03-11T11:41:45.431Z,93031.41
2023-03-11T11:44:17.938Z,93016.56
2023-03-11T11:46:54.230Z,93020.94
2023-03-11T11:49:24.032Z,93024.88
2023-03-11T11:52:13.675Z,93011.94
2023-03-11T11:54:44.994Z,93020.00
2023-03-11T11:57:16.702Z,93020.91
2023-03-11T11:59:44.564Z,93018.34
2023-03-11T12:02:56.123Z,93025.72
2023-03-11T12:05:38.142Z,93016.19
2023-03-11T12:08:27.582Z,93015.03
2023-03-11T12:11:07.743Z,93018.50
2023-03-11T12:14:13.585Z,93014.34
2023-03-11T12:17:03.379Z,93013.88
2023-03-11T12:19:51.872Z,93006.66
2023-03-11T12:22:47.871Z,93013.25
2023-03-11T12:25:32.543Z,93011.84
2023-03-11T12:28:25.430Z,93003.25
2023-03-11T12:31:00.624Z,93007.13
2023-03-11T12:33:36.465Z,93008.19
2023-03-11T12:36:04.832Z,93002.91
2023-03-11T12:38:40.695Z,93009.78
2023-03-11T12:41:27.641Z,93004.75
2023-03-11T12:44:00.040Z,92997.47
2023-03-11T12:46:58.908Z,92992.16
2023-03-11T12:49:30.604Z,92998.47
2023-03-11T12:52:13.241Z,92997.97
2023-03-11T12:54:44.138Z,93003.28
2023-03-11T12:57:17.109Z,92993.00
2023-03-11T12:59:56.164Z,92994.16
2023-03-11T13:03:00.713Z,92985.25
2023-03-11T13:05:37.281Z,92986.22
2023-03-11T13:08:15.738Z,92971.47
2023-03-11T13:10:45.388Z,92978.06
2023-03-11T13:13:32.966Z,92981.56
2023-03-11T13:16:15.057Z,92980.75
2023-03-11T13:18:43.562Z,92966.44
2023-03-11T13:21:28.571Z,92970.13
2023-03-11T13:24:25.720Z,92956.66
2023-03-11T13:26:59.539Z,92965.50
2023-03-11T13:30:03.639Z,92976.78
2023-03-11T13:32:45.229Z,92968.81
2023-03-11T13:35:33.418Z,92976.84
2023-03-11T13:38:35.649Z,92979.25
2023-03-11T13:41:04.476Z,92988.19
2023-03-11T13:43:31.197Z,92989.06
2023-03-11T13:46:00.888Z,92996.16
2023-03-11T13:48:32.911Z,92986.44
2023-03-11T13:51:08.392Z,92993.59
2023-03-11T13:53:47.857Z,92983.22
2023-03-11T13:56:26.897Z,92981.41
2023-03-11T13:58:53.677Z,92992.13
2023-03-11T14:01:20.716Z,92988.22
2023-03-11T14:03:48.252Z,92986.25
2023-03-11T14:06:19.574Z,92993.00
2023-03-11T14:08:57.644Z,92989.09
2023-03-11T14:11:32.036Z,92985.56
2023-03-11T14:13:58.899Z,92978.00
2023-03-11T14:16:44.133Z,92992.25
2023-03-11T14:19:20.142Z,92991.09
2023-03-11T14:21:49.941Z,92999.63
2023-03-11T14:24:23.789Z,93007.38
2023-03-11T14:26:55.665Z,93006.19
2023-03-11T14:29:30.916Z,93005.78
2023-03-11T14:31:57.911Z,93003.25
2023-03-11T14:34:28.993Z,93000.06
2023-03-11T14:37:00.150Z,93002.56
2023-03-11T14:39:34.248Z,92995.69
2023-03-11T14:42:19.019Z,92989.59
2023-03-11T14:45:14.698Z,92987.22
2023-03-11T14:47:49.864Z,92992.94
2023-03-11T14:50:29.049Z,92988.31
2023-03-11T14:53:00.250Z,92989.53
2023-03-11T14:55:35.125Z,92983.41
2023-03-11T14:58:12.834Z,92991.13
2023-03-11T15:00:56.211Z,92992.72
2023-03-11T15:03:31.034Z,92998.28
2023-03-11T15:06:04.124Z,92995.16
2023-03-11T15:08:37.769Z,92994.81
2023-03-11T15:11:13.276Z,92996.94
2023-03-11T15:13:42.422Z,92996.72
2023-03-11T15:16:33.543Z,92991.94
2023-03-11T15:19:20.642Z,93006.00
2023-03-11T15:21:49.274Z,93002.47
2023-03-11T15:24:27.721Z,93002.16
2023-03-11T15:27:19.206Z,92990.41
2023-03-11T15:29:54.940Z,92987.38
2023-03-11T15:32:43.887Z,92987.66
2023-03-11T15:35:13.162Z,92995.63
2023-03-11T15:37:41.725Z,92993.06
2023-03-11T15:40:20.736Z,93003.38
2023-03-11T15:42:49.327Z,93012.81
2023-03-11T15:45:20.671Z,92999.59
2023-03-11T15:47:48.954Z,93008.09
2023-03-11T15:50:37.265Z,93014.34
2023-03-11T15:53:09.909Z,93023.19
2023-03-11T15:55:37.213Z,93017.19
2023-03-11T15:58:07.857Z,93021.38
2023-03-11T16:00:35.172Z,93036.97
2023-03-11T16:03:01.854Z,93037.59
2023-03-11T16:05:28.994Z,93043.16
2023-03-11T16:07:55.708Z,93053.28
2023-03-11T16:10:28.831Z,93049.13
2023-03-11T16:12:56.163Z,93046.19
2023-03-11T16:15:29.373Z,93045.75
2023-03-11T16:17:58.331Z,93044.09
2023-03-11T16:20:28.116Z,93044.09
2023-03-11T16:22:58.473Z,93061.34
2023-03-11T16:25:33.314Z,93064.81
2023-03-11T16:28:01.015Z,93073.22
2023-03-11T16:30:30.679Z,93075.41
2023-03-11T16:32:57.654Z,93081.09
2023-03-11T16:35:24.996Z,93081.88
2023-03-11T16:37:51.963Z,93086.88
2023-03-11T16:40:28.118Z,93086.78
2023-03-11T16:42:59.915Z,93086.22
2023-03-11T16:45:26.794Z,93099.69
2023-03-11T16:47:53.534Z,93103.34
2023-03-11T16:50:20.995Z,93100.59
2023-03-11T16:52:47.803Z,93101.63
2023-03-11T16:55:14.565Z,93108.28
2023-03-11T16:57:41.332Z,93111.00
2023-03-11T17:00:09.965Z,93111.09
2023-03-11T17:02:37.441Z,93115.34
2023-03-11T17:05:05.168Z,93124.69
2023-03-11T17:07:32.461Z,93123.53
2023-03-11T17:10:00.227Z,93126.25
2023-03-11T17:12:27.810Z,93133.25
2023-03-11T17:14:55.124Z,93136.34
2023-03-11T17:17:22.362Z,93144.06
2023-03-11T17:19:49.035Z,93131.69
2023-03-11T17:22:16.590Z,93132.50
2023-03-11T17:24:43.333Z,93138.34
2023-03-11T17:27:10.158Z,93142.56
2023-03-11T17:29:36.956Z,93141.03
2023-03-11T17:32:06.097Z,93130.97
2023-03-11T17:34:32.721Z,93137.97
2023-03-11T17:36:59.421Z,93132.50
2023-03-11T17:39:26.011Z,93146.06
2023-03-11T17:41:52.755Z,93158.09
2023-03-11T17:44:19.349Z,93153.44
2023-03-11T17:46:46.105Z,93161.19
2023-03-11T17:49:14.715Z,93168.94
2023-03-11T17:51:41.667Z,93165.84
2023-03-11T17:54:08.265Z,93174.31
2023-03-11T17:56:35.177Z,93187.50
2023-03-11T17:59:01.862Z,93186.28
2023-03-11T18:01:29.311Z,93201.00
2023-03-11T18:03:56.388Z,93210.72
2023-03-11T18:06:23.829Z,93211.44
2023-03-11T18:08:50.897Z,93214.50
2023-03-11T18:11:20.879Z,93223.78
2023-03-11T18:13:47.777Z,93226.91
2023-03-11T18:16:21.625Z,93226.56
2023-03-11T18:18:48.825Z,93230.41
2023-03-11T18:21:18.492Z,93237.72
2023-03-11T18:23:45.808Z,93239.28
2023-03-11T18:26:15.062Z,93228.00
2023-03-11T18:28:42.476Z,93236.47
2023-03-11T18:31:11.947Z,93237.69
2023-03-11T18:33:38.996Z,93243.13
2023-03-11T18:36:21.125Z,93244.31
2023-03-11T18:38:48.892Z,93247.81
2023-03-11T18:41:15.999Z,93252.09
2023-03-11T18:43:42.792Z,93249.75
2023-03-11T18:46:12.259Z,93242.72
2023-03-11T18:48:39.347Z,93245.88
2023-03-11T18:51:08.359Z,93253.22
2023-03-11T18:53:36.245Z,93255.97
2023-03-11T18:56:06.926Z,93249.03
2023-03-11T18:58:34.023Z,93254.41
2023-03-11T19:01:13.968Z,93254.41
2023-03-11T19:03:41.803Z,93266.41
2023-03-11T19:06:09.691Z,93266.47
2023-03-11T19:08:36.530Z,93266.44
2023-03-11T19:11:07.551Z,93264.50
2023-03-11T19:13:46.324Z,93278.38
2023-03-11T19:16:15.836Z,93280.31
2023-03-11T19:18:42.459Z,93283.75
2023-03-11T19:21:12.706Z,93287.88
2023-03-11T19:23:39.605Z,93289.34
2023-03-11T19:26:07.148Z,93284.59
2023-03-11T19:28:34.003Z,93288.03
2023-03-11T19:31:01.131Z,93289.53
2023-03-11T19:33:28.510Z,93291.00
2023-03-11T19:35:57.480Z,93295.53
2023-03-11T19:38:25.182Z,93297.84
2023-03-11T19:41:03.896Z,93306.59
2023-03-11T19:43:30.752Z,93305.00
2023-03-11T19:45:57.969Z,93303.41
2023-03-11T19:48:24.940Z,93304.56
2023-03-11T19:50:52.324Z,93305.97
2023-03-11T19:53:19.901Z,93301.56
2023-03-11T19:55:49.774Z,93305.34
2023-03-11T19:58:16.490Z,93310.63
2023-03-11T20:00:43.766Z,93322.59
2023-03-11T20:03:12.506Z,93318.19
2023-03-11T20:05:41.749Z,93328.50
2023-03-11T20:08:09.839Z,93326.69
2023-03-11T20:10:42.092Z,93331.25
2023-03-11T20:13:09.287Z,93337.72
2023-03-11T20:15:36.360Z,93336.97
2023-03-11T20:18:03.744Z,93334.91
2023-03-11T20:20:31.096Z,93337.19
2023-03-11T20:22:58.471Z,93338.63
2023-03-11T20:25:25.853Z,93345.16
2023-03-11T20:27:53.584Z,93343.22
2023-03-11T20:30:20.542Z,93347.19
2023-03-11T20:32:48.234Z,93348.59
2023-03-11T20:35:15.344Z,93356.91
2023-03-11T20:37:45.546Z,93354.47
2023-03-11T20:40:14.420Z,93357.16
2023-03-11T20:42:43.172Z,93358.00
2023-03-11T20:45:10.872Z,93358.06
2023-03-11T20:47:37.682Z,93354.63
2023-03-11T20:50:04.695Z,93365.84
2023-03-11T20:52:35.647Z,93355.72
2023-03-11T20:55:03.512Z,93357.50
2023-03-11T20:57:30.327Z,93369.81
2023-03-11T20:59:56.993Z,93363.25
2023-03-11T21:02:23.841Z,93373.94
2023-03-11T21:04:50.721Z,93378.25
2023-03-11T21:07:17.584Z,93385.94
2023-03-11T21:09:44.323Z,93382.84
2023-03-11T21:12:11.033Z,93378.28
2023-03-11T21:14:37.636Z,93380.63
2023-03-11T21:17:04.503Z,93377.88
2023-03-11T21:19:31.372Z,93375.06
2023-03-11T21:21:58.268Z,93372.66
2023-03-11T21:24:25.073Z,93376.22
2023-03-11T21:26:51.795Z,93385.09
2023-03-11T21:29:18.554Z,93384.44
2023-03-11T21:31:46.547Z,93374.88
2023-03-11T21:34:13.260Z,93394.44
2023-03-11T21:36:40.165Z,93394.50
2023-03-11T21:39:07.017Z,93397.97
2023-03-11T21:41:33.755Z,93401.00
2023-03-11T21:44:00.563Z,93399.81
2023-03-11T21:46:31.423Z,93400.16
2023-03-11T21:48:59.676Z,93406.78
2023-03-11T21:51:26.876Z,93404.00
2023-03-11T21:53:53.749Z,93407.81
2023-03-11T21:56:20.692Z,93404.72
2023-03-11T21:58:47.724Z,93407.34
2023-03-11T22:01:14.537Z,93406.00
2023-03-11T22:03:41.795Z,93413.28
2023-03-11T22:06:11.092Z,93403.75
2023-03-11T22:08:38.325Z,93405.00
2023-03-11T22:11:10.324Z,93399.75
2023-03-11T22:13:37.195Z,93400.94
2023-03-11T22:16:06.264Z,93402.25
2023-03-11T22:18:33.022Z,93400.00
2023-03-11T22:21:00.470Z,93402.06
2023-03-11T22:23:27.810Z,93404.38
2023-03-11T22:25:54.651Z,93396.72
2023-03-11T22:28:21.801Z,93403.03
2023-03-11T22:30:48.703Z,93403.28
2023-03-11T22:33:15.647Z,93407.81
2023-03-11T22:35:55.680Z,93404.03
2023-03-11T22:38:23.191Z,93415.59
2023-03-11T22:40:50.501Z,93418.09
2023-03-11T22:43:17.231Z,93406.06
2023-03-11T22:45:46.788Z,93417.97
2023-03-11T22:48:13.635Z,93413.78
2023-03-11T22:50:41.848Z,93407.28
2023-03-11T22:53:08.687Z,93412.94
2023-03-11T22:55:42.767Z,93412.09
2023-03-11T22:58:09.976Z,93414.28
2023-03-11T23:00:36.820Z,93420.72
2023-03-11T23:03:04.133Z,93418.53
2023-03-11T23:05:31.185Z,93418.81
2023-03-11T23:07:57.925Z,93424.63
2023-03-11T23:10:24.537Z,93426.19
2023-03-11T23:12:51.189Z,93423.13
2023-03-11T23:15:18.998Z,93426.53
2023-03-11T23:17:46.114Z,93424.75
2023-03-11T23:20:15.782Z,93415.59
2023-03-11T23:22:43.218Z,93416.25
2023-03-11T23:25:13.766Z,93418.38
2023-03-11T23:27:42.527Z,93416.41
2023-03-11T23:30:14.381Z,93412.19
2023-03-11T23:32:41.145Z,93411.50
2023-03-11T23:35:08.123Z,93414.66
2023-03-11T23:37:34.837Z,93417.06
2023-03-11T23:40:01.544Z,93411.63
2023-03-11T23:42:28.221Z,93411.25
2023-03-11T23:44:54.965Z,93417.06
2023-03-11T23:47:21.672Z,93419.09
2023-03-11T23:49:48.388Z,93420.59
2023-03-11T23:52:15.310Z,93416.91
2023-03-11T23:54:42.024Z,93416.00
2023-03-11T23:57:08.747Z,93415.91
2023-03-11T23:59:35.486Z,93429.38
